Sample Charts Sidebar
> Live data! Your data is on the web site for you to access within minutes
 
> Detailed data is easily downloaded as data file, which can be opened with Excel
 
> Charts can be customised if necessary
  Chart 1
 

(A maximum of 50 rows are displayed here. Use "Export Data" to see all rows in the date range.)
Date Collected Temperature
(Celcius)
Wind-chill
(Celcius)
Wind Speed
(km/hr)
Gust
(km/hr)
Wind Direction
(degrees)
2021-04-17 20:00 10.8 9.6 4 10 66
2021-04-17 19:00 10.6 9.7 4 9 48
2021-04-17 18:00 10.2 9.0 4 9 78
2021-04-17 17:00 11.0 10.0 4 13 17
2021-04-17 16:00 11.8 10.9 2 11 360
2021-04-17 15:00 12.2 10.8 4 11 343
2021-04-17 14:00 12.7 12.2 3 8 189
2021-04-17 13:00 12.8 11.3 4 10 193
2021-04-17 12:00 12.8 10.0 6 15 213
2021-04-17 11:00 12.4 6.7 9 21 213
2021-04-17 10:00 11.0 5.7 8 23 221
2021-04-17 09:00 10.3 4.4 9 21 208
2021-04-17 08:00 8.8 2.5 9 24 195
2021-04-17 07:00 8.5 1.1 11 24 197
2021-04-17 06:00 8.5 1.8 10 24 198
2021-04-17 05:00 8.5 1.9 9 25 205
2021-04-17 04:00 8.4 2.9 8 22 193
2021-04-17 03:00 8.6 3.9 8 23 196
2021-04-17 02:00 8.1 4.0 7 19 198
2021-04-17 01:00 8.3 3.0 8 24 199
2021-04-17 00:00 8.1 4.5 6 16 191
2021-04-16 23:00 8.3 4.4 7 18 195
2021-04-16 22:00 8.3 5.6 5 15 192
2021-04-16 21:00 8.1 5.3 5 15 198
2021-04-16 20:00 8.0 3.0 8 18 198
2021-04-16 19:00 8.3 3.9 7 18 205
2021-04-16 18:00 8.5 3.7 7 17 201
2021-04-16 17:00 8.8 5.2 6 15 212
2021-04-16 16:00 9.1 5.2 7 15 213
2021-04-16 15:00 9.6 5.7 7 15 214
2021-04-16 14:00 10.1 4.3 9 21 219
2021-04-16 13:00 11.1 6.6 8 17 216
2021-04-16 12:00 13.1 10.6 6 15 11
2021-04-16 11:00 12.9 12.7 2 5 71
2021-04-16 10:00 12.8 12.5 2 5 78
2021-04-16 09:00 12.5 11.4 4 8 43
2021-04-16 08:00 12.2 11.9 3 6 49
2021-04-16 07:00 12.4 11.8 3 8 25
2021-04-16 06:00 13.8 12.3 4 13 357
2021-04-16 05:00 13.3 10.7 6 15 341
2021-04-16 04:00 13.3 11.2 5 16 345
2021-04-16 03:00 13.6 10.2 7 18 338
2021-04-16 02:00 13.8 11.4 5 16 342
2021-04-16 01:00 13.3 11.0 5 12 14
2021-04-16 00:00 12.7 11.7 3 8 11
2021-04-15 23:00 12.0 11.8 3 11 36
2021-04-15 22:00 11.0 9.0 4 11 357
2021-04-15 21:00 10.0 9.7 2 8 52
2021-04-15 20:00 10.2 10.0 3 6 55
2021-04-15 19:00 11.0 10.5 3 7 41